Time,TemperatureF,DewpointF,PressureIn,WindDirection,WindDirectionDegrees,WindSpeedMPH,WindSpeedGustMPH,Humidity,HourlyPrecipIn,Conditions,Clouds,dailyrainin,SolarRadiationWatts/m^2,SoftwareType,DateUTC
2013-07-04 00:12:00,63.0,-99.9,-100.00,West,279,6.0,6.0,0,0.00,,,0.00,59.000000,,2013-07-04 07:12:00,
2013-07-04 00:22:00,63.0,-99.9,-100.00,West,279,6.0,6.0,0,0.00,,,0.00,59.000000,,2013-07-04 07:22:00,
2013-07-04 00:34:00,63.0,-99.9,-100.00,West,279,6.0,6.0,0,0.00,,,0.00,59.000000,,2013-07-04 07:34:00,
2013-07-04 00:42:00,59.0,-99.9,-100.00,West,279,6.0,6.0,0,0.00,,,0.00,57.000000,,2013-07-04 07:42:00,
2013-07-04 01:02:00,59.0,-99.9,-100.00,West,279,6.0,6.0,0,0.00,,,0.00,57.000000,,2013-07-04 08:02:00,
2013-07-04 01:12:00,59.0,-99.9,-100.00,West,279,6.0,6.0,0,0.00,,,0.00,57.000000,,2013-07-04 08:12:00,
2013-07-04 01:22:00,59.0,-99.9,-100.00,West,279,6.0,6.0,0,0.00,,,0.00,57.000000,,2013-07-04 08:22:00,
2013-07-04 01:33:00,59.0,-99.9,-100.00,West,279,6.0,6.0,0,0.00,,,0.00,57.000000,,2013-07-04 08:33:00,
2013-07-04 01:42:00,57.0,-99.9,-100.00,West,279,3.0,6.0,0,0.00,,,0.00,52.000000,,2013-07-04 08:42:00,
2013-07-04 02:11:00,57.0,-99.9,-100.00,West,279,3.0,6.0,0,0.00,,,0.00,52.000000,,2013-07-04 09:11:00,
2013-07-04 02:22:00,57.0,-99.9,-100.00,West,279,3.0,6.0,0,0.00,,,0.00,52.000000,,2013-07-04 09:22:00,
2013-07-04 02:33:00,57.0,-99.9,-100.00,West,279,3.0,6.0,0,0.00,,,0.00,52.000000,,2013-07-04 09:33:00,
2013-07-04 11:42:00,60.0,-99.9,-100.00,West,279,7.0,9.0,0,0.00,,,0.00,200.000000,,2013-07-04 18:42:00,
2013-07-04 12:12:00,60.0,-99.9,-100.00,West,279,7.0,9.0,0,0.00,,,0.00,200.000000,,2013-07-04 19:12:00,
2013-07-04 12:22:00,60.0,-99.9,-100.00,West,279,7.0,9.0,0,0.00,,,0.00,200.000000,,2013-07-04 19:22:00,
2013-07-04 12:34:00,60.0,-99.9,-100.00,West,279,7.0,9.0,0,0.00,,,0.00,200.000000,,2013-07-04 19:34:00,
2013-07-04 12:42:00,69.0,-99.9,-100.00,West,279,7.0,7.0,0,0.00,,,0.00,303.000000,,2013-07-04 19:42:00,
2013-07-04 13:12:00,69.0,-99.9,-100.00,West,279,7.0,7.0,0,0.00,,,0.00,303.000000,,2013-07-04 20:12:00,
2013-07-04 13:22:00,69.0,-99.9,-100.00,West,279,7.0,7.0,0,0.00,,,0.00,303.000000,,2013-07-04 20:22:00,
2013-07-04 13:34:00,69.0,-99.9,-100.00,West,279,7.0,7.0,0,0.00,,,0.00,303.000000,,2013-07-04 20:34:00,
2013-07-04 13:42:00,74.0,-99.9,-100.00,West,279,7.0,7.0,0,0.00,,,0.00,834.000000,,2013-07-04 20:42:00,
2013-07-04 14:12:00,74.0,-99.9,-100.00,West,279,7.0,7.0,0,0.00,,,0.00,834.000000,,2013-07-04 21:12:00,
2013-07-04 14:22:00,74.0,-99.9,-100.00,West,279,7.0,7.0,0,0.00,,,0.00,834.000000,,2013-07-04 21:22:00,
2013-07-04 14:32:00,74.0,-99.9,-100.00,West,279,7.0,7.0,0,0.00,,,0.00,834.000000,,2013-07-04 21:32:00,
2013-07-04 14:42:00,75.0,-99.9,-100.00,West,279,9.0,9.0,0,0.00,,,0.00,1071.000000,,2013-07-04 21:42:00,
2013-07-04 15:02:00,75.0,-99.9,-100.00,West,279,9.0,9.0,0,0.00,,,0.00,1071.000000,,2013-07-04 22:02:00,
2013-07-04 15:12:00,75.0,-99.9,-100.00,West,279,9.0,9.0,0,0.00,,,0.00,1071.000000,,2013-07-04 22:12:00,
2013-07-04 15:22:00,75.0,-99.9,-100.00,West,279,9.0,9.0,0,0.00,,,0.00,1071.000000,,2013-07-04 22:22:00,
2013-07-04 15:33:00,75.0,-99.9,-100.00,West,279,9.0,9.0,0,0.00,,,0.00,1071.000000,,2013-07-04 22:33:00,
2013-07-04 16:12:00,75.0,-99.9,-100.00,West,279,9.0,9.0,0,-99.99,,,0.00,1096.000000,,2013-07-04 23:12:00,
2013-07-04 16:23:00,75.0,-99.9,-100.00,West,279,9.0,9.0,0,-99.99,,,0.00,1096.000000,,2013-07-04 23:23:00,
2013-07-04 16:42:00,72.0,-99.9,-100.00,West,279,1.0,9.0,0,-99.99,,,0.00,841.000000,,2013-07-04 23:42:00,
2013-07-04 17:12:00,72.0,-99.9,-100.00,West,279,1.0,9.0,0,-99.99,,,0.00,841.000000,,2013-07-05 00:12:00,
2013-07-04 17:22:00,72.0,-99.9,-100.00,West,279,1.0,9.0,0,-99.99,,,0.00,841.000000,,2013-07-05 00:22:00,
2013-07-04 17:32:00,72.0,-99.9,-100.00,West,279,1.0,9.0,0,-99.99,,,0.00,841.000000,,2013-07-05 00:32:00,
2013-07-04 17:42:00,68.0,-99.9,-100.00,West,279,2.0,2.0,0,0.00,,,0.00,641.000000,,2013-07-05 00:42:00,
2013-07-04 18:11:00,68.0,-99.9,-100.00,West,279,2.0,2.0,0,0.00,,,0.00,641.000000,,2013-07-05 01:11:00,
2013-07-04 18:22:00,68.0,-99.9,-100.00,West,279,2.0,2.0,0,0.00,,,0.00,641.000000,,2013-07-05 01:22:00,
2013-07-04 18:32:00,68.0,-99.9,-100.00,West,279,2.0,2.0,0,0.00,,,0.00,641.000000,,2013-07-05 01:32:00,
2013-07-04 18:42:00,67.0,-99.9,-100.00,West,279,2.0,4.0,0,0.00,,,0.00,172.000000,,2013-07-05 01:42:00,
2013-07-04 19:11:00,67.0,-99.9,-100.00,West,279,2.0,4.0,0,0.00,,,0.00,172.000000,,2013-07-05 02:11:00,
2013-07-04 19:22:00,67.0,-99.9,-100.00,West,279,2.0,4.0,0,0.00,,,0.00,172.000000,,2013-07-05 02:22:00,
2013-07-04 19:32:00,67.0,-99.9,-100.00,West,279,2.0,4.0,0,0.00,,,0.00,172.000000,,2013-07-05 02:32:00,
2013-07-04 19:42:00,65.0,-99.9,-100.00,West,279,2.0,2.0,0,0.00,,,0.00,139.000000,,2013-07-05 02:42:00,
2013-07-04 20:02:00,65.0,-99.9,-100.00,West,279,2.0,2.0,0,0.00,,,0.00,139.000000,,2013-07-05 03:02:00,
2013-07-04 20:11:00,65.0,-99.9,-100.00,West,279,2.0,2.0,0,0.00,,,0.00,139.000000,,2013-07-05 03:11:00,
2013-07-04 20:22:00,65.0,-99.9,-100.00,West,279,2.0,2.0,0,0.00,,,0.00,139.000000,,2013-07-05 03:22:00,
2013-07-04 20:33:00,65.0,-99.9,-100.00,West,279,2.0,2.0,0,0.00,,,0.00,139.000000,,2013-07-05 03:33:00,
2013-07-04 20:42:00,63.0,-99.9,-100.00,West,279,2.0,2.0,0,0.00,,,0.00,139.000000,,2013-07-05 03:42:00,
2013-07-04 21:01:00,63.0,-99.9,-100.00,West,279,2.0,2.0,0,0.00,,,0.00,139.000000,,2013-07-05 04:01:00,
2013-07-04 21:12:00,63.0,-99.9,-100.00,West,279,2.0,2.0,0,0.00,,,0.00,139.000000,,2013-07-05 04:12:00,
2013-07-04 21:22:00,63.0,-99.9,-100.00,West,279,2.0,2.0,0,0.00,,,0.00,139.000000,,2013-07-05 04:22:00,
2013-07-04 21:33:00,63.0,-99.9,-100.00,West,279,2.0,2.0,0,0.00,,,0.00,139.000000,,2013-07-05 04:33:00,
2013-07-04 21:42:00,60.0,-99.9,-100.00,West,279,6.0,6.0,0,0.00,,,0.00,74.000000,,2013-07-05 04:42:00,
2013-07-04 22:12:00,60.0,-99.9,-100.00,West,279,6.0,6.0,0,0.00,,,0.00,74.000000,,2013-07-05 05:12:00,
2013-07-04 22:22:00,60.0,-99.9,-100.00,West,279,6.0,6.0,0,0.00,,,0.00,74.000000,,2013-07-05 05:22:00,
2013-07-04 22:33:00,60.0,-99.9,-100.00,West,279,6.0,6.0,0,0.00,,,0.00,74.000000,,2013-07-05 05:33:00,